sensor_id;sensor_type;location;lat;lon;timestamp;pressure;altitude;pressure_sealevel;temperature;humidity
7297;BME280;40758;54.038;11.684;2023-07-13T00:00:29;101035.91;;;15.67;79.73
7297;BME280;40758;54.038;11.684;2023-07-13T00:02:58;101040.56;;;15.67;79.79
7297;BME280;40758;54.038;11.684;2023-07-13T00:05:28;101043.53;;;15.65;79.79
7297;BME280;40758;54.038;11.684;2023-07-13T00:08:23;101039.38;;;15.63;79.66
7297;BME280;40758;54.038;11.684;2023-07-13T00:10:56;101039.59;;;15.61;79.58
7297;BME280;40758;54.038;11.684;2023-07-13T00:13:23;101037.34;;;15.58;79.70
7297;BME280;40758;54.038;11.684;2023-07-13T00:15:50;101042.00;;;15.58;79.71
7297;BME280;40758;54.038;11.684;2023-07-13T00:18:17;101042.00;;;15.58;79.85
7297;BME280;40758;54.038;11.684;2023-07-13T00:20:43;101035.94;;;15.56;80.05
7297;BME280;40758;54.038;11.684;2023-07-13T00:23:23;101044.97;;;15.56;79.95
7297;BME280;40758;54.038;11.684;2023-07-13T00:26:13;101036.22;;;15.54;79.90
7297;BME280;40758;54.038;11.684;2023-07-13T00:28:40;101044.41;;;15.54;79.97
7297;BME280;40758;54.038;11.684;2023-07-13T00:31:10;101050.72;;;15.55;80.04
7297;BME280;40758;54.038;11.684;2023-07-13T00:33:37;101042.00;;;15.58;80.10
7297;BME280;40758;54.038;11.684;2023-07-13T00:36:04;101037.59;;;15.57;80.17
7297;BME280;40758;54.038;11.684;2023-07-13T00:38:31;101033.78;;;15.58;80.10
7297;BME280;40758;54.038;11.684;2023-07-13T00:41:16;101037.34;;;15.58;80.05
7297;BME280;40758;54.038;11.684;2023-07-13T00:43:54;101041.41;;;15.56;80.11
7297;BME280;40758;54.038;11.684;2023-07-13T00:46:27;101048.81;;;15.55;80.23
7297;BME280;40758;54.038;11.684;2023-07-13T00:48:57;101044.63;;;15.53;80.26
7297;BME280;40758;54.038;11.684;2023-07-13T00:51:57;101047.63;;;15.51;80.31
7297;BME280;40758;54.038;11.684;2023-07-13T00:55:00;101043.72;;;15.47;80.28
7297;BME280;40758;54.038;11.684;2023-07-13T00:57:27;101040.66;;;15.43;80.30
7297;BME280;40758;54.038;11.684;2023-07-13T00:59:57;101040.88;;;15.42;80.29
7297;BME280;40758;54.038;11.684;2023-07-13T01:02:27;101039.22;;;15.41;80.39
7297;BME280;40758;54.038;11.684;2023-07-13T01:04:56;101034.84;;;15.40;80.54
7297;BME280;40758;54.038;11.684;2023-07-13T01:07:22;101033.75;;;15.41;80.63
7297;BME280;40758;54.038;11.684;2023-07-13T01:09:49;101038.16;;;15.42;80.59
7297;BME280;40758;54.038;11.684;2023-07-13T01:12:16;101036.50;;;15.41;80.64
7297;BME280;40758;54.038;11.684;2023-07-13T01:14:42;101027.72;;;15.39;80.63
7297;BME280;40758;54.038;11.684;2023-07-13T01:17:10;101033.44;;;15.37;80.70
7297;BME280;40758;54.038;11.684;2023-07-13T01:19:41;101028.44;;;15.34;80.87
7297;BME280;40758;54.038;11.684;2023-07-13T01:22:11;101032.25;;;15.33;81.02
7297;BME280;40758;54.038;11.684;2023-07-13T01:24:41;101031.91;;;15.30;80.92
7297;BME280;40758;54.038;11.684;2023-07-13T01:27:10;101033.00;;;15.29;81.04
7297;BME280;40758;54.038;11.684;2023-07-13T01:29:39;101031.34;;;15.28;80.96
7297;BME280;40758;54.038;11.684;2023-07-13T01:32:10;101031.81;;;15.25;81.18
7297;BME280;40758;54.038;11.684;2023-07-13T01:34:37;101041.72;;;15.26;81.22
7297;BME280;40758;54.038;11.684;2023-07-13T01:37:05;101038.16;;;15.25;81.16
7297;BME280;40758;54.038;11.684;2023-07-13T01:42:27;101044.44;;;15.26;81.48
7297;BME280;40758;54.038;11.684;2023-07-13T01:44:54;101042.75;;;15.25;81.47
7297;BME280;40758;54.038;11.684;2023-07-13T01:47:22;101046.56;;;15.24;81.40
7297;BME280;40758;54.038;11.684;2023-07-13T01:49:49;101043.25;;;15.22;81.49
7297;BME280;40758;54.038;11.684;2023-07-13T01:52:18;101031.13;;;15.17;81.57
7297;BME280;40758;54.038;11.684;2023-07-13T01:54:44;101041.00;;;15.18;81.65
7297;BME280;40758;54.038;11.684;2023-07-13T01:57:11;101043.72;;;15.18;81.58
7297;BME280;40758;54.038;11.684;2023-07-13T01:59:38;101047.56;;;15.17;81.71
7297;BME280;40758;54.038;11.684;2023-07-13T02:02:22;101044.25;;;15.15;81.77
7297;BME280;40758;54.038;11.684;2023-07-13T02:04:49;101046.41;;;15.13;81.58
7297;BME280;40758;54.038;11.684;2023-07-13T02:07:16;101042.22;;;15.11;81.69
7297;BME280;40758;54.038;11.684;2023-07-13T02:09:42;101050.09;;;15.07;81.70
7297;BME280;40758;54.038;11.684;2023-07-13T02:12:09;101046.19;;;15.03;81.75
7297;BME280;40758;54.038;11.684;2023-07-13T02:14:36;101050.00;;;15.02;81.97
7297;BME280;40758;54.038;11.684;2023-07-13T02:17:03;101049.19;;;15.02;82.03
7297;BME280;40758;54.038;11.684;2023-07-13T02:19:30;101047.16;;;14.97;81.92
7297;BME280;40758;54.038;11.684;2023-07-13T02:21:57;101056.09;;;14.93;82.10
7297;BME280;40758;54.038;11.684;2023-07-13T02:24:24;101048.03;;;14.86;81.96
7297;BME280;40758;54.038;11.684;2023-07-13T02:26:54;101047.09;;;14.80;82.10
7297;BME280;40758;54.038;11.684;2023-07-13T02:29:20;101056.00;;;14.76;82.07
7297;BME280;40758;54.038;11.684;2023-07-13T02:31:52;101047.84;;;14.64;82.21
7297;BME280;40758;54.038;11.684;2023-07-13T02:34:41;101061.16;;;14.60;82.25
7297;BME280;40758;54.038;11.684;2023-07-13T02:37:08;101059.38;;;14.54;82.50
7297;BME280;40758;54.038;11.684;2023-07-13T02:39:35;101059.03;;;14.51;82.45
7297;BME280;40758;54.038;11.684;2023-07-13T02:42:02;101051.53;;;14.46;82.50
7297;BME280;40758;54.038;11.684;2023-07-13T02:44:29;101048.22;;;14.44;82.71
7297;BME280;40758;54.038;11.684;2023-07-13T02:46:56;101050.94;;;14.44;82.83
7297;BME280;40758;54.038;11.684;2023-07-13T02:49:23;101053.56;;;14.39;82.84
7297;BME280;40758;54.038;11.684;2023-07-13T02:51:50;101049.19;;;14.26;82.86
7297;BME280;40758;54.038;11.684;2023-07-13T02:54:17;101063.41;;;14.17;83.01
7297;BME280;40758;54.038;11.684;2023-07-13T02:56:44;101059.38;;;14.07;83.12
7297;BME280;40758;54.038;11.684;2023-07-13T02:59:11;101052.13;;;14.01;83.23
7297;BME280;40758;54.038;11.684;2023-07-13T03:01:38;101058.53;;;13.95;83.48
7297;BME280;40758;54.038;11.684;2023-07-13T03:04:05;101053.44;;;13.87;83.50
7297;BME280;40758;54.038;11.684;2023-07-13T03:06:35;101054.84;;;13.78;83.81
7297;BME280;40758;54.038;11.684;2023-07-13T03:09:06;101056.84;;;13.71;84.02
7297;BME280;40758;54.038;11.684;2023-07-13T03:11:33;101058.84;;;13.64;84.01
7297;BME280;40758;54.038;11.684;2023-07-13T03:14:02;101055.50;;;13.62;84.65
7297;BME280;40758;54.038;11.684;2023-07-13T03:16:28;101062.03;;;13.61;84.71
7297;BME280;40758;54.038;11.684;2023-07-13T03:18:55;101061.31;;;13.53;85.15
7297;BME280;40758;54.038;11.684;2023-07-13T03:21:22;101059.97;;;13.44;85.24
7297;BME280;40758;54.038;11.684;2023-07-13T03:27:07;101072.31;;;13.47;85.63
7297;BME280;40758;54.038;11.684;2023-07-13T03:29:34;101072.56;;;13.45;85.81
7297;BME280;40758;54.038;11.684;2023-07-13T03:32:00;101076.91;;;13.35;85.36
7297;BME280;40758;54.038;11.684;2023-07-13T03:34:27;101073.56;;;13.32;85.79
7297;BME280;40758;54.038;11.684;2023-07-13T03:36:54;101075.31;;;13.27;85.71
7297;BME280;40758;54.038;11.684;2023-07-13T03:39:22;101077.06;;;13.40;85.89
7297;BME280;40758;54.038;11.684;2023-07-13T03:41:49;101061.72;;;13.39;86.14
7297;BME280;40758;54.038;11.684;2023-07-13T03:44:16;101087.72;;;13.41;86.25
7297;BME280;40758;54.038;11.684;2023-07-13T03:46:44;101080.47;;;13.35;86.09
7297;BME280;40758;54.038;11.684;2023-07-13T03:49:11;101085.78;;;13.30;86.05
7297;BME280;40758;54.038;11.684;2023-07-13T03:51:38;101092.50;;;13.27;85.86
7297;BME280;40758;54.038;11.684;2023-07-13T03:54:05;101081.84;;;13.26;86.06
7297;BME280;40758;54.038;11.684;2023-07-13T03:56:53;101081.16;;;13.30;85.91
7297;BME280;40758;54.038;11.684;2023-07-13T03:59:20;101075.00;;;13.35;86.25
7297;BME280;40758;54.038;11.684;2023-07-13T04:01:46;101076.44;;;13.38;86.32
7297;BME280;40758;54.038;11.684;2023-07-13T04:04:13;101078.47;;;13.42;86.28
7297;BME280;40758;54.038;11.684;2023-07-13T04:06:42;101079.69;;;13.46;86.22
7297;BME280;40758;54.038;11.684;2023-07-13T04:09:08;101085.72;;;13.48;86.11
7297;BME280;40758;54.038;11.684;2023-07-13T04:11:36;101090.63;;;13.58;86.27
7297;BME280;40758;54.038;11.684;2023-07-13T04:14:03;101087.56;;;13.78;86.10
7297;BME280;40758;54.038;11.684;2023-07-13T04:17:00;101089.91;;;14.04;85.96
